Time;durP1;ratioP1;P1;durP2;ratioP2;P2;SDS_P1;SDS_P2;PMS_P1;PMS_P2;Temp;Humidity;BMP_temperature;BMP_pressure;BME280_temperature;BME280_humidity;BME280_pressure;Samples;Min_cycle;Max_cycle;Signal;HPM_P1;HPM_P2
2023/08/13 00:01:34;;;;;;;4.35;1.92;;;20.80;99.90;;;;;;5013820;28;20084;-50
2023/08/13 00:03:59;;;;;;;4.22;2.20;;;20.90;99.90;;;;;;5013596;28;20030;-52
2023/08/13 00:06:25;;;;;;;4.38;2.05;;;20.80;99.90;;;;;;4996308;28;20022;-52
2023/08/13 00:08:50;;;;;;;2.38;2.00;;;20.80;99.90;;;;;;5013947;28;20474;-50
2023/08/13 00:11:16;;;;;;;4.03;2.13;;;20.80;99.90;;;;;;4996332;28;20022;-50
2023/08/13 00:13:42;;;;;;;11.27;2.22;;;20.80;99.90;;;;;;5012687;28;20026;-51
2023/08/13 00:16:09;;;;;;;3.42;2.00;;;20.80;99.90;;;;;;5013846;28;20030;-53
2023/08/13 00:18:35;;;;;;;4.28;1.90;;;20.80;99.90;;;;;;5013781;28;20084;-54
2023/08/13 00:21:00;;;;;;;5.75;2.17;;;20.80;99.90;;;;;;5013646;28;20049;-50
2023/08/13 00:23:26;;;;;;;2.13;1.92;;;20.70;99.90;;;;;;5013469;28;20065;-52
2023/08/13 00:25:52;;;;;;;1.95;1.85;;;20.80;99.90;;;;;;5013568;28;20021;-51
2023/08/13 00:28:17;;;;;;;1.58;1.48;;;20.70;99.90;;;;;;5013450;28;20034;-52
2023/08/13 00:30:43;;;;;;;4.85;1.90;;;20.70;99.90;;;;;;5013235;28;20477;-50
2023/08/13 00:33:09;;;;;;;6.25;1.98;;;20.70;99.90;;;;;;4995885;28;20405;-52
2023/08/13 00:35:34;;;;;;;1.90;1.80;;;20.70;99.90;;;;;;5013221;28;20030;-52
2023/08/13 00:38:00;;;;;;;4.53;1.85;;;20.70;99.90;;;;;;5013287;28;20466;-47
2023/08/13 00:40:25;;;;;;;4.40;2.20;;;20.80;99.90;;;;;;5013101;28;20449;-49
2023/08/13 00:42:51;;;;;;;3.83;2.17;;;20.70;99.90;;;;;;5013162;28;20030;-52
2023/08/13 00:45:16;;;;;;;4.13;1.98;;;20.80;99.90;;;;;;5013016;28;20401;-51
2023/08/13 00:47:43;;;;;;;4.88;2.10;;;20.80;99.90;;;;;;5013123;28;20486;-51
2023/08/13 00:50:09;;;;;;;2.38;1.98;;;20.70;99.90;;;;;;5012881;28;20370;-49
2023/08/13 00:52:35;;;;;;;2.35;1.77;;;20.70;99.90;;;;;;5013108;28;20022;-52
2023/08/13 00:55:02;;;;;;;2.13;1.67;;;20.80;99.90;;;;;;5012795;28;20044;-49
2023/08/13 00:57:27;;;;;;;6.57;3.10;;;20.80;99.90;;;;;;5013075;28;20030;-50
2023/08/13 00:59:53;;;;;;;2.42;2.25;;;20.80;99.90;;;;;;5012593;28;20449;-51
2023/08/13 01:02:20;;;;;;;8.98;2.75;;;20.80;99.90;;;;;;5013047;28;20109;-49
2023/08/13 01:04:46;;;;;;;3.00;2.58;;;20.70;99.90;;;;;;5012510;28;20075;-54
2023/08/13 01:07:36;;;;;;;4.75;2.53;;;20.70;99.90;;;;;;5012817;28;20537;-49
2023/08/13 01:10:20;;;;;;;4.90;3.03;;;20.60;99.90;;;;;;5012536;28;20481;-53
2023/08/13 01:12:58;;;;;;;10.23;2.63;;;20.60;99.90;;;;;;4995054;28;20026;-51
2023/08/13 01:15:29;;;;;;;9.75;2.88;;;20.60;99.90;;;;;;5012472;28;20022;-50
2023/08/13 01:17:56;;;;;;;3.67;3.10;;;20.70;99.90;;;;;;5012572;28;20477;-51
2023/08/13 01:20:51;;;;;;;8.05;3.53;;;20.60;99.90;;;;;;5012408;28;20022;-51
2023/08/13 01:23:16;;;;;;;3.50;2.92;;;20.60;99.90;;;;;;4999498;28;20030;-52
2023/08/13 01:26:01;;;;;;;3.95;3.40;;;20.60;99.90;;;;;;5012253;28;20032;-50
2023/08/13 01:28:32;;;;;;;6.05;4.20;;;20.60;99.90;;;;;;5012364;28;20038;-49
2023/08/13 01:31:04;;;;;;;7.80;3.90;;;20.50;99.90;;;;;;5012240;28;20029;-50
2023/08/13 01:33:33;;;;;;;4.18;3.15;;;20.50;99.90;;;;;;5012311;28;20038;-51
2023/08/13 01:36:01;;;;;;;7.88;3.70;;;20.40;99.90;;;;;;5012271;28;20053;-49
2023/08/13 01:38:28;;;;;;;4.30;3.45;;;20.40;99.90;;;;;;4994800;28;20025;-48
2023/08/13 01:40:56;;;;;;;7.90;3.42;;;20.40;99.90;;;;;;5012477;28;20583;-52
2023/08/13 01:43:22;;;;;;;4.63;3.40;;;20.30;99.90;;;;;;5012364;28;20022;-49
2023/08/13 01:45:47;;;;;;;4.18;3.42;;;20.40;99.90;;;;;;5012054;28;20504;-47
2023/08/13 01:48:13;;;;;;;6.68;3.60;;;20.30;99.90;;;;;;4994384;28;20041;-50
2023/08/13 01:50:39;;;;;;;6.93;3.78;;;20.30;99.90;;;;;;5011916;28;20041;-49
2023/08/13 01:53:05;;;;;;;7.50;3.38;;;20.40;99.90;;;;;;5012071;28;20111;-54
2023/08/13 01:55:31;;;;;;;4.32;3.22;;;20.40;99.90;;;;;;5034799;22;20049;-61
2023/08/13 01:57:56;;;;;;;5.28;4.05;;;20.40;99.90;;;;;;4994173;28;20057;-61
2023/08/13 02:00:22;;;;;;;6.93;4.13;;;20.30;99.90;;;;;;5011586;28;20018;-61
2023/08/13 02:02:47;;;;;;;7.88;3.42;;;20.30;99.90;;;;;;5011895;28;20022;-61
2023/08/13 02:05:13;;;;;;;8.00;3.90;;;20.30;99.90;;;;;;5011425;28;20029;-60
2023/08/13 02:07:38;;;;;;;9.88;4.32;;;20.20;99.90;;;;;;4994188;28;20490;-62
2023/08/13 02:10:04;;;;;;;5.65;3.85;;;20.20;99.90;;;;;;5011572;28;20489;-60
2023/08/13 02:12:30;;;;;;;7.22;4.07;;;20.20;99.90;;;;;;5011809;28;20461;-62
2023/08/13 02:14:56;;;;;;;4.68;3.78;;;20.10;99.90;;;;;;5011710;28;20036;-60
2023/08/13 02:17:21;;;;;;;5.47;3.90;;;20.10;99.90;;;;;;4994207;28;20046;-60
2023/08/13 02:19:47;;;;;;;16.88;4.55;;;20.10;99.90;;;;;;5011328;28;20452;-60
2023/08/13 02:22:12;;;;;;;10.20;4.38;;;20.10;99.90;;;;;;5011743;28;20029;-61
2023/08/13 02:24:38;;;;;;;3.92;3.30;;;20.10;99.90;;;;;;5011582;28;20034;-62
2023/08/13 02:27:04;;;;;;;6.60;3.75;;;20.00;99.90;;;;;;5011811;28;20433;-59
2023/08/13 02:29:29;;;;;;;6.32;3.92;;;20.10;99.90;;;;;;5011588;28;20021;-63
2023/08/13 02:31:55;;;;;;;9.43;3.90;;;20.00;99.90;;;;;;5011339;28;20125;-61
2023/08/13 02:34:22;;;;;;;7.78;4.18;;;20.00;99.90;;;;;;5011316;28;20406;-59
2023/08/13 02:36:48;;;;;;;7.47;3.72;;;20.00;99.90;;;;;;5012264;28;20046;-60
2023/08/13 02:39:13;;;;;;;9.25;4.15;;;19.90;99.90;;;;;;4997816;28;20061;-62
2023/08/13 02:41:39;;;;;;;4.22;3.50;;;20.00;99.90;;;;;;5015258;28;20029;-61
2023/08/13 02:44:04;;;;;;;4.72;3.72;;;19.90;99.90;;;;;;5015301;28;20105;-61
2023/08/13 02:46:30;;;;;;;5.22;3.72;;;20.00;99.90;;;;;;5015323;28;20124;-61
2023/08/13 02:48:55;;;;;;;10.55;4.55;;;19.90;99.90;;;;;;5015194;28;20085;-61
2023/08/13 02:51:25;;;;;;;6.32;4.15;;;19.90;99.90;;;;;;5014947;28;20104;-61
2023/08/13 02:53:51;;;;;;;4.05;3.10;;;19.90;99.90;;;;;;5015034;28;20033;-61
2023/08/13 02:56:18;;;;;;;7.05;4.43;;;19.90;99.90;;;;;;5015384;28;20026;-61
2023/08/13 02:58:44;;;;;;;10.07;3.53;;;19.90;99.90;;;;;;5015255;28;20123;-61
2023/08/13 03:01:10;;;;;;;6.00;3.80;;;20.00;99.90;;;;;;5014893;28;20026;-62
2023/08/13 03:03:36;;;;;;;8.00;3.88;;;19.90;99.90;;;;;;5014745;28;20030;-61
2023/08/13 03:06:01;;;;;;;4.00;3.60;;;19.90;99.90;;;;;;5014866;28;20041;-61
2023/08/13 03:08:27;;;;;;;3.97;3.50;;;19.90;99.90;;;;;;5014933;28;20022;-62
2023/08/13 03:10:52;;;;;;;8.82;3.50;;;19.90;99.90;;;;;;5014648;28;20113;-61
2023/08/13 03:13:18;;;;;;;4.22;3.30;;;19.90;99.90;;;;;;4997291;28;20105;-61
2023/08/13 03:15:44;;;;;;;7.07;3.55;;;19.90;99.90;;;;;;5014432;28;20029;-61
2023/08/13 03:18:10;;;;;;;4.32;3.00;;;19.90;99.90;;;;;;5014744;28;20028;-62
2023/08/13 03:20:36;;;;;;;6.50;3.45;;;19.90;99.90;;;;;;5014495;28;20121;-61
2023/08/13 03:23:02;;;;;;;7.93;3.80;;;19.90;99.90;;;;;;4997145;28;20508;-62
2023/08/13 03:25:27;;;;;;;8.10;3.25;;;19.80;99.90;;;;;;4996880;28;20406;-62
2023/08/13 03:27:53;;;;;;;7.13;3.40;;;19.90;99.90;;;;;;5014624;28;20061;-60
2023/08/13 03:30:18;;;;;;;8.13;3.63;;;19.90;99.90;;;;;;5014357;28;20045;-60
2023/08/13 03:32:44;;;;;;;5.32;4.10;;;19.80;99.90;;;;;;5014539;28;20030;-62
2023/08/13 03:35:09;;;;;;;9.68;4.68;;;19.90;99.90;;;;;;4996727;28;20030;-63
2023/08/13 03:37:35;;;;;;;10.27;4.32;;;19.80;99.90;;;;;;5014381;28;20390;-62
2023/08/13 03:40:00;;;;;;;4.60;3.35;;;19.80;99.90;;;;;;4996466;28;20022;-62
2023/08/13 03:42:26;;;;;;;7.75;3.58;;;19.80;99.90;;;;;;5014276;28;20026;-60
2023/08/13 03:44:52;;;;;;;6.47;3.92;;;19.80;99.90;;;;;;4996532;28;20056;-61
2023/08/13 03:47:17;;;;;;;7.03;4.00;;;19.80;99.90;;;;;;5014194;28;20091;-62
2023/08/13 03:49:43;;;;;;;7.25;3.90;;;19.70;99.90;;;;;;4996544;28;20034;-61
2023/08/13 03:52:11;;;;;;;6.60;3.95;;;19.70;99.90;;;;;;5014099;28;20022;-63
2023/08/13 03:54:37;;;;;;;8.68;4.20;;;19.70;99.90;;;;;;5013707;28;20116;-63
2023/08/13 03:57:02;;;;;;;5.63;3.90;;;19.80;99.90;;;;;;5014242;28;20057;-62
2023/08/13 03:59:28;;;;;;;5.60;3.95;;;19.80;99.90;;;;;;5013839;28;20029;-61
2023/08/13 04:01:53;;;;;;;5.65;3.35;;;19.70;99.90;;;;;;4996303;28;20021;-58
2023/08/13 04:04:19;;;;;;;5.68;3.53;;;19.70;99.90;;;;;;5013758;28;20049;-61
2023/08/13 04:06:45;;;;;;;3.90;3.55;;;19.70;99.90;;;;;;5014040;28;20105;-59
2023/08/13 04:09:11;;;;;;;4.15;3.70;;;19.70;99.90;;;;;;4996289;28;20060;-59
2023/08/13 04:11:36;;;;;;;5.72;3.33;;;19.70;99.90;;;;;;5013484;28;20057;-61
2023/08/13 04:14:02;;;;;;;4.72;3.47;;;19.70;99.90;;;;;;4996389;28;20033;-61
2023/08/13 04:16:27;;;;;;;5.82;3.65;;;19.60;99.90;;;;;;5013766;28;20013;-62
2023/08/13 04:18:53;;;;;;;6.05;3.60;;;19.70;99.90;;;;;;5013774;28;20030;-62
2023/08/13 04:21:18;;;;;;;4.10;3.70;;;19.60;99.90;;;;;;5013355;28;20033;-59
2023/08/13 04:23:44;;;;;;;5.20;3.25;;;19.60;99.90;;;;;;5013618;28;20026;-59
2023/08/13 04:26:10;;;;;;;10.93;3.40;;;19.60;99.90;;;;;;5013409;28;20497;-61
2023/08/13 04:28:36;;;;;;;8.95;3.67;;;19.60;99.90;;;;;;5013460;28;20026;-63
2023/08/13 04:31:01;;;;;;;3.95;3.08;;;19.50;99.90;;;;;;5013216;28;20030;-61
2023/08/13 04:33:27;;;;;;;3.28;2.95;;;19.60;99.90;;;;;;5013383;28;20087;-61
2023/08/13 04:35:53;;;;;;;7.20;3.13;;;19.60;99.90;;;;;;5013239;28;20072;-60
2023/08/13 04:38:20;;;;;;;8.68;4.63;;;19.60;99.90;;;;;;5013293;28;20030;-63
2023/08/13 04:40:47;;;;;;;6.90;3.72;;;19.60;99.90;;;;;;4996002;28;20397;-61
2023/08/13 04:43:13;;;;;;;7.95;3.70;;;19.70;99.90;;;;;;5013187;28;20182;-62
2023/08/13 04:45:39;;;;;;;5.57;3.90;;;19.50;99.90;;;;;;5013127;28;20030;-61
2023/08/13 04:48:04;;;;;;;5.88;3.30;;;19.60;99.90;;;;;;5013157;28;20025;-62
2023/08/13 04:50:30;;;;;;;8.80;4.18;;;19.60;99.90;;;;;;4995780;28;20386;-61
2023/08/13 04:52:55;;;;;;;8.55;3.83;;;19.60;99.90;;;;;;5013049;28;20033;-62
2023/08/13 04:55:21;;;;;;;23.00;4.72;;;19.60;99.90;;;;;;4995083;28;20055;-61
2023/08/13 04:57:46;;;;;;;4.43;3.90;;;19.60;99.90;;;;;;5013045;28;20025;-61
2023/08/13 05:00:13;;;;;;;4.18;3.63;;;19.60;99.90;;;;;;5012167;28;20032;-62
2023/08/13 05:02:38;;;;;;;8.70;4.13;;;19.50;99.90;;;;;;5012886;28;20034;-63
2023/08/13 05:05:04;;;;;;;4.85;4.10;;;19.50;99.90;;;;;;4994815;28;20026;-62
2023/08/13 05:07:30;;;;;;;5.80;3.88;;;19.60;99.90;;;;;;4995295;28;20028;-62
2023/08/13 05:09:55;;;;;;;6.75;5.10;;;19.50;99.90;;;;;;5012827;28;20057;-62
2023/08/13 05:12:21;;;;;;;6.88;4.63;;;19.60;99.90;;;;;;4995065;28;20029;-62
2023/08/13 05:14:46;;;;;;;4.75;4.28;;;19.50;99.90;;;;;;4994885;28;20064;-62
2023/08/13 05:17:19;;;;;;;5.15;4.10;;;19.50;99.90;;;;;;5012772;28;20066;-62
2023/08/13 05:19:45;;;;;;;5.90;4.13;;;19.50;99.90;;;;;;5012580;28;20022;-59
2023/08/13 05:22:10;;;;;;;5.80;3.95;;;19.50;99.90;;;;;;4995813;28;20022;-61
2023/08/13 05:24:36;;;;;;;12.32;3.85;;;19.50;99.90;;;;;;4995081;28;20037;-62
2023/08/13 05:27:03;;;;;;;4.22;3.45;;;19.50;99.90;;;;;;5012783;28;20037;-62
2023/08/13 05:29:29;;;;;;;8.25;4.28;;;19.50;99.90;;;;;;5012770;28;20076;-61
2023/08/13 05:31:54;;;;;;;3.97;3.63;;;19.50;99.90;;;;;;4995051;28;20022;-60
2023/08/13 05:34:20;;;;;;;5.63;4.00;;;19.50;99.90;;;;;;5012711;28;20028;-61
2023/08/13 05:36:45;;;;;;;4.35;4.05;;;19.50;99.90;;;;;;5012604;28;20534;-62
2023/08/13 05:39:11;;;;;;;6.80;4.00;;;19.40;99.90;;;;;;4995131;28;20113;-62
2023/08/13 05:41:37;;;;;;;6.65;4.28;;;19.50;99.90;;;;;;5012669;28;20046;-62
2023/08/13 05:44:03;;;;;;;5.38;3.95;;;19.50;99.90;;;;;;5012333;28;20528;-62
2023/08/13 05:46:28;;;;;;;4.85;4.03;;;19.40;99.90;;;;;;5012749;28;20018;-62
2023/08/13 05:48:54;;;;;;;6.85;4.75;;;19.40;99.90;;;;;;5012406;28;20490;-62
2023/08/13 05:51:19;;;;;;;7.13;3.80;;;19.40;99.90;;;;;;5012536;28;20022;-61
2023/08/13 05:53:45;;;;;;;4.72;3.88;;;19.50;99.90;;;;;;4994564;28;20037;-60
2023/08/13 05:56:10;;;;;;;3.80;3.50;;;19.30;99.90;;;;;;4994563;28;20030;-61
2023/08/13 05:58:36;;;;;;;4.60;3.33;;;19.50;99.90;;;;;;4994663;28;20018;-61
2023/08/13 06:01:01;;;;;;;7.20;4.25;;;19.50;99.90;;;;;;5012007;28;20032;-61
2023/08/13 06:03:27;;;;;;;3.92;3.50;;;19.60;99.90;;;;;;5011898;28;20022;-61
2023/08/13 06:05:54;;;;;;;3.65;3.35;;;19.60;99.90;;;;;;5011996;28;20064;-61
2023/08/13 06:08:20;;;;;;;8.13;3.88;;;19.60;99.90;;;;;;5012274;28;20113;-63
2023/08/13 06:10:45;;;;;;;7.22;4.70;;;19.70;99.90;;;;;;5011409;28;20510;-62
2023/08/13 06:13:12;;;;;;;5.57;4.38;;;19.70;99.90;;;;;;5011441;28;20493;-62
2023/08/13 06:15:38;;;;;;;8.23;3.55;;;19.80;99.90;;;;;;4993979;28;20486;-60
2023/08/13 06:18:04;;;;;;;9.85;3.75;;;19.80;99.90;;;;;;5011747;28;20026;-61
2023/08/13 06:20:30;;;;;;;8.02;3.70;;;19.90;99.90;;;;;;5011938;28;20025;-62
2023/08/13 06:22:56;;;;;;;5.35;3.70;;;19.90;99.90;;;;;;5012272;28;20417;-58
2023/08/13 06:25:21;;;;;;;3.95;3.42;;;19.90;99.90;;;;;;5011955;28;20026;-62
2023/08/13 06:27:47;;;;;;;4.93;3.78;;;20.00;99.90;;;;;;5011915;28;20030;-63
2023/08/13 06:30:12;;;;;;;6.53;3.50;;;20.10;99.90;;;;;;5011673;28;20122;-61
2023/08/13 06:32:38;;;;;;;5.13;3.67;;;20.10;99.90;;;;;;5011938;28;20120;-62
2023/08/13 06:35:04;;;;;;;7.15;3.85;;;20.20;99.90;;;;;;5011777;28;20030;-61
2023/08/13 06:37:30;;;;;;;4.53;3.83;;;20.20;99.90;;;;;;4994126;28;20022;-63
2023/08/13 06:39:55;;;;;;;4.93;3.58;;;20.30;99.90;;;;;;4994048;28;20029;-61
2023/08/13 06:42:21;;;;;;;4.43;3.30;;;20.40;99.90;;;;;;5011874;28;20478;-62
2023/08/13 06:44:47;;;;;;;3.40;3.00;;;20.40;99.90;;;;;;5011627;28;20037;-62
2023/08/13 06:47:13;;;;;;;4.35;3.58;;;20.50;99.90;;;;;;5011747;28;20141;-61
2023/08/13 06:49:38;;;;;;;6.20;2.80;;;20.60;99.90;;;;;;5011617;28;20029;-56
2023/08/13 06:52:04;;;;;;;7.72;4.05;;;20.90;99.90;;;;;;5011387;28;20037;-62
2023/08/13 06:54:30;;;;;;;4.40;2.85;;;21.00;99.90;;;;;;5011378;28;20034;-62
2023/08/13 06:56:55;;;;;;;3.28;2.78;;;21.20;99.90;;;;;;5011630;28;20022;-61
2023/08/13 06:59:21;;;;;;;7.22;2.97;;;21.40;99.90;;;;;;4993884;28;20026;-62
2023/08/13 07:01:46;;;;;;;3.95;2.70;;;21.50;99.90;;;;;;5011742;28;20061;-61
2023/08/13 07:04:12;;;;;;;4.05;2.60;;;21.60;99.90;;;;;;4993659;28;20108;-63
2023/08/13 07:06:37;;;;;;;3.35;2.67;;;21.70;99.90;;;;;;5011577;28;20101;-59
2023/08/13 07:09:03;;;;;;;2.75;2.35;;;21.90;99.90;;;;;;5011450;28;20018;-61
2023/08/13 07:11:32;;;;;;;3.10;2.80;;;22.00;99.90;;;;;;5011114;28;20477;-62
2023/08/13 07:13:58;;;;;;;2.53;2.20;;;22.00;99.90;;;;;;4993720;28;20033;-62
2023/08/13 07:16:24;;;;;;;3.22;2.60;;;22.10;99.90;;;;;;5011211;28;20093;-62
2023/08/13 07:18:49;;;;;;;2.30;2.10;;;22.20;99.90;;;;;;4993740;28;20022;-63
2023/08/13 07:21:15;;;;;;;4.85;2.13;;;22.30;99.90;;;;;;4988841;28;20026;-55
2023/08/13 07:23:40;;;;;;;2.58;2.30;;;22.40;99.90;;;;;;5012733;28;20105;-56
2023/08/13 07:26:06;;;;;;;2.95;2.15;;;22.60;99.90;;;;;;4996957;28;20029;-59
2023/08/13 07:28:35;;;;;;;3.08;2.00;;;22.90;99.90;;;;;;5014578;28;20037;-61
2023/08/13 07:31:03;;;;;;;6.25;2.10;;;23.00;99.90;;;;;;5013925;28;20029;-59
2023/08/13 07:33:30;;;;;;;5.10;1.90;;;23.20;99.90;;;;;;5014776;28;20022;-56
2023/08/13 07:35:57;;;;;;;3.38;2.05;;;23.30;99.90;;;;;;5013197;28;20504;-56
2023/08/13 07:38:22;;;;;;;2.85;2.20;;;23.30;99.90;;;;;;5014241;28;20040;-53
2023/08/13 07:40:48;;;;;;;1.60;1.58;;;23.50;99.90;;;;;;4996744;28;20022;-55
2023/08/13 07:43:13;;;;;;;6.30;2.20;;;23.70;99.90;;;;;;5014410;28;20033;-57
2023/08/13 07:45:39;;;;;;;3.35;2.03;;;24.20;99.90;;;;;;5014415;28;20033;-54
2023/08/13 07:48:05;;;;;;;3.50;2.03;;;24.40;99.90;;;;;;5014300;28;20033;-54
2023/08/13 07:50:30;;;;;;;3.63;1.80;;;24.30;99.90;;;;;;5013949;28;20037;-52
2023/08/13 07:52:56;;;;;;;4.43;1.75;;;24.20;99.90;;;;;;4996539;28;20485;-53
2023/08/13 07:55:21;;;;;;;2.30;2.10;;;24.30;99.90;;;;;;5012604;28;20054;-52
2023/08/13 07:57:48;;;;;;;2.30;1.67;;;24.60;99.90;;;;;;4994513;28;20073;-57
2023/08/13 08:00:16;;;;;;;3.38;1.73;;;25.10;99.90;;;;;;5010968;28;20032;-59
2023/08/13 08:02:42;;;;;;;1.80;1.70;;;25.70;99.90;;;;;;5014401;28;20018;-55
2023/08/13 08:05:08;;;;;;;1.73;1.38;;;26.40;99.90;;;;;;5013628;28;20041;-58
2023/08/13 08:07:34;;;;;;;5.07;1.60;;;27.00;99.90;;;;;;5013531;28;20026;-61
2023/08/13 08:10:01;;;;;;;2.00;1.80;;;27.60;99.90;;;;;;5013834;28;20036;-56
2023/08/13 08:12:26;;;;;;;3.67;1.40;;;28.30;99.90;;;;;;4996480;28;20402;-60
2023/08/13 08:14:52;;;;;;;1.42;1.33;;;28.70;99.90;;;;;;5013791;28;20045;-56
2023/08/13 08:17:17;;;;;;;2.72;1.30;;;29.10;99.90;;;;;;5013497;28;20038;-54
2023/08/13 08:19:43;;;;;;;1.30;1.20;;;28.80;99.90;;;;;;5013477;28;20100;-53
2023/08/13 08:22:08;;;;;;;2.88;1.60;;;29.20;99.90;;;;;;4995640;28;20029;-61
2023/08/13 08:24:34;;;;;;;1.45;1.38;;;29.60;99.90;;;;;;5013126;28;20038;-57
2023/08/13 08:26:59;;;;;;;2.20;1.75;;;29.60;99.90;;;;;;4996013;28;20030;-55
2023/08/13 08:29:25;;;;;;;1.65;1.42;;;29.50;99.90;;;;;;4995787;28;20033;-60
2023/08/13 08:31:52;;;;;;;1.40;1.30;;;29.50;99.90;;;;;;5013923;28;20033;-56
2023/08/13 08:34:17;;;;;;;3.78;1.85;;;29.30;99.90;;;;;;5012214;28;20026;-58
2023/08/13 08:36:43;;;;;;;4.03;1.70;;;29.30;99.90;;;;;;5013475;28;20026;-57
2023/08/13 08:39:08;;;;;;;1.50;1.40;;;29.40;99.90;;;;;;5013044;28;20033;-56
2023/08/13 08:41:36;;;;;;;3.92;1.40;;;29.50;99.90;;;;;;5013356;28;20026;-58
2023/08/13 08:44:02;;;;;;;6.93;1.77;;;29.60;99.90;;;;;;4995720;28;20080;-59
2023/08/13 08:46:28;;;;;;;3.45;1.70;;;29.50;99.90;;;;;;4995835;28;20047;-59
2023/08/13 08:48:54;;;;;;;1.63;1.52;;;28.80;99.90;;;;;;4995695;28;20029;-59
2023/08/13 08:51:21;;;;;;;6.45;1.83;;;28.40;99.90;;;;;;5013285;28;20159;-60
2023/08/13 08:53:49;;;;;;;1.88;1.33;;;28.00;99.90;;;;;;5012699;28;20029;-58
2023/08/13 08:56:15;;;;;;;2.95;1.60;;;27.40;99.90;;;;;;4994578;28;20501;-60
2023/08/13 08:58:41;;;;;;;3.15;1.73;;;27.10;99.90;;;;;;4995502;28;20028;-58
2023/08/13 09:01:07;;;;;;;3.30;1.70;;;26.70;99.90;;;;;;5011525;28;20022;-58
2023/08/13 09:03:32;;;;;;;1.98;1.88;;;26.00;99.90;;;;;;5012804;28;20363;-57
2023/08/13 09:05:58;;;;;;;1.58;1.48;;;26.00;99.90;;;;;;4986830;28;20030;-58
2023/08/13 09:08:25;;;;;;;4.60;1.70;;;26.00;99.90;;;;;;4993307;28;20034;-57
2023/08/13 09:10:50;;;;;;;2.88;2.03;;;25.90;99.90;;;;;;4993309;28;20149;-55
2023/08/13 09:13:16;;;;;;;2.08;1.80;;;25.90;99.90;;;;;;4975517;28;20112;-58
2023/08/13 09:15:48;;;;;;;2.53;2.00;;;25.90;99.90;;;;;;4992931;28;20026;-56
2023/08/13 09:18:13;;;;;;;2.63;1.65;;;25.90;99.90;;;;;;4996913;28;20041;-58
2023/08/13 09:20:44;;;;;;;4.78;1.95;;;25.90;99.90;;;;;;5012363;28;20446;-58
2023/08/13 09:23:10;;;;;;;1.77;1.50;;;25.80;99.90;;;;;;4994837;28;20073;-56
2023/08/13 09:25:36;;;;;;;1.95;1.85;;;25.70;99.90;;;;;;4994213;28;20073;-58
2023/08/13 09:28:02;;;;;;;2.97;1.90;;;25.80;99.90;;;;;;4994230;28;20105;-54
2023/08/13 09:30:31;;;;;;;5.10;1.98;;;25.70;99.90;;;;;;5011369;28;20177;-57
2023/08/13 09:32:58;;;;;;;4.10;2.13;;;25.80;99.90;;;;;;5012309;28;20033;-55
2023/08/13 09:35:24;;;;;;;3.70;2.40;;;25.80;99.90;;;;;;5012230;28;20029;-56
2023/08/13 09:37:51;;;;;;;2.78;2.03;;;25.70;99.90;;;;;;5011923;28;20025;-56
2023/08/13 09:40:17;;;;;;;3.35;2.22;;;25.60;99.90;;;;;;4994541;28;20026;-55
2023/08/13 09:42:44;;;;;;;4.70;2.67;;;25.70;99.90;;;;;;5012282;28;20405;-53
2023/08/13 09:45:10;;;;;;;2.65;2.03;;;25.70;99.90;;;;;;5011976;28;20033;-54
2023/08/13 09:47:39;;;;;;;4.22;2.55;;;25.80;99.90;;;;;;5010603;28;20037;-57
2023/08/13 09:50:05;;;;;;;3.03;2.42;;;25.80;99.90;;;;;;5005650;28;20189;-52
2023/08/13 09:52:32;;;;;;;2.85;2.20;;;25.80;99.90;;;;;;4994491;28;20090;-52
2023/08/13 09:55:15;;;;;;;4.90;2.65;;;25.80;99.90;;;;;;5012128;28;20026;-48
2023/08/13 09:57:43;;;;;;;2.83;2.47;;;25.70;99.90;;;;;;5010248;28;20394;-56
2023/08/13 10:00:10;;;;;;;8.93;2.42;;;25.70;99.90;;;;;;5011607;28;20050;-58
2023/08/13 10:02:38;;;;;;;7.55;2.15;;;25.70;99.90;;;;;;4994222;28;20028;-50
2023/08/13 10:05:04;;;;;;;16.42;14.48;;;25.70;99.90;;;;;;5011753;28;20045;-55
2023/08/13 10:07:31;;;;;;;53.15;42.95;;;25.60;99.90;;;;;;5011252;28;20417;-51
2023/08/13 10:09:57;;;;;;;18.90;13.65;;;25.60;99.90;;;;;;5011509;28;20025;-51
2023/08/13 10:12:24;;;;;;;4.18;2.95;;;25.70;99.90;;;;;;5011702;28;20034;-52
2023/08/13 10:14:50;;;;;;;2.75;2.30;;;25.60;99.90;;;;;;4993076;28;20560;-49
2023/08/13 10:17:19;;;;;;;2.45;2.00;;;25.60;99.90;;;;;;5011782;28;20105;-54
2023/08/13 10:19:49;;;;;;;4.20;2.47;;;25.50;99.90;;;;;;5011167;28;20145;-53
2023/08/13 10:22:23;;;;;;;4.13;2.28;;;25.50;99.90;;;;;;4991964;28;20019;-49
2023/08/13 10:24:48;;;;;;;4.10;1.73;;;25.50;99.90;;;;;;4992519;28;20023;-51
2023/08/13 10:27:14;;;;;;;3.95;1.80;;;25.50;99.90;;;;;;5011324;28;20037;-51
2023/08/13 10:29:43;;;;;;;2.38;1.80;;;25.50;99.90;;;;;;4993748;28;20030;-55
2023/08/13 10:32:13;;;;;;;3.95;2.70;;;25.50;99.90;;;;;;5011427;28;20080;-54
2023/08/13 10:34:50;;;;;;;7.63;2.15;;;25.60;99.90;;;;;;5011642;28;20101;-50
2023/08/13 10:37:20;;;;;;;4.50;2.10;;;25.50;99.90;;;;;;4993878;28;20058;-60
2023/08/13 10:40:02;;;;;;;3.75;1.80;;;25.40;99.90;;;;;;5011196;28;20041;-59
2023/08/13 10:42:33;;;;;;;3.95;1.30;;;25.40;99.90;;;;;;5012099;28;20104;-52
2023/08/13 10:45:08;;;;;;;5.15;1.90;;;25.40;99.90;;;;;;4985062;28;20022;-58
2023/08/13 10:47:47;;;;;;;4.93;1.92;;;25.40;99.90;;;;;;4993918;28;20401;-54
2023/08/13 10:50:18;;;;;;;6.25;1.83;;;25.40;99.90;;;;;;5011628;28;20064;-53
2023/08/13 10:52:47;;;;;;;1.88;1.38;;;25.40;99.90;;;;;;5011625;28;20034;-61
2023/08/13 10:55:17;;;;;;;9.68;1.98;;;25.50;99.90;;;;;;5011304;28;20033;-54
2023/08/13 10:57:49;;;;;;;3.38;1.70;;;25.50;99.90;;;;;;4995269;28;20520;-51
2023/08/13 11:00:15;;;;;;;1.95;1.48;;;25.60;99.90;;;;;;5015040;28;20081;-58
2023/08/13 11:02:44;;;;;;;5.35;2.25;;;25.60;99.90;;;;;;4997963;28;20116;-65
2023/08/13 11:05:09;;;;;;;3.03;1.75;;;25.50;99.90;;;;;;5015429;28;20028;-58
2023/08/13 11:07:35;;;;;;;2.53;1.40;;;25.60;99.90;;;;;;5015400;28;20030;-58
2023/08/13 11:10:03;;;;;;;2.72;1.73;;;25.60;99.90;;;;;;5014218;28;20036;-56
2023/08/13 11:12:30;;;;;;;4.45;1.85;;;25.70;99.90;;;;;;5014659;28;20054;-55
2023/08/13 11:14:59;;;;;;;2.65;1.40;;;25.60;99.90;;;;;;5014769;28;20030;-61
2023/08/13 11:17:26;;;;;;;3.42;1.95;;;25.50;99.90;;;;;;5014937;28;20022;-58
2023/08/13 11:19:56;;;;;;;2.45;1.42;;;25.50;99.90;;;;;;5014388;28;20020;-58
2023/08/13 11:22:24;;;;;;;6.20;1.77;;;25.50;99.90;;;;;;5015045;28;20060;-58
2023/08/13 11:24:50;;;;;;;2.75;1.60;;;25.40;99.90;;;;;;4997254;28;20057;-57
2023/08/13 11:27:15;;;;;;;3.50;1.85;;;25.40;99.90;;;;;;5014016;28;20068;-57
2023/08/13 11:29:42;;;;;;;3.17;1.60;;;25.30;99.90;;;;;;4996811;28;20473;-54
2023/08/13 11:32:07;;;;;;;5.38;1.58;;;25.40;99.90;;;;;;4997128;28;20513;-57
2023/08/13 11:34:33;;;;;;;2.80;1.45;;;25.40;99.90;;;;;;4997590;28;20029;-59
2023/08/13 11:36:59;;;;;;;2.72;1.30;;;25.50;99.90;;;;;;5014893;28;20500;-60
2023/08/13 11:39:25;;;;;;;5.00;1.88;;;25.50;99.90;;;;;;4998591;28;20022;-56
2023/08/13 11:41:51;;;;;;;2.75;1.40;;;25.60;99.90;;;;;;4997408;28;20061;-60
2023/08/13 11:44:18;;;;;;;1.85;1.40;;;25.60;99.90;;;;;;5015358;28;20034;-56
2023/08/13 11:46:52;;;;;;;3.42;1.10;;;25.40;99.90;;;;;;5014723;28;20022;-57
2023/08/13 11:49:17;;;;;;;2.80;1.50;;;25.40;99.70;;;;;;5014702;28;20097;-57
2023/08/13 11:51:43;;;;;;;3.78;1.30;;;25.40;99.90;;;;;;5014065;28;20057;-60
2023/08/13 11:54:09;;;;;;;3.08;1.27;;;25.40;99.90;;;;;;5014076;28;20030;-57
2023/08/13 11:56:36;;;;;;;3.95;1.25;;;25.30;99.90;;;;;;5013183;28;20041;-57
2023/08/13 11:59:58;;;;;;;2.80;1.55;;;25.30;99.90;;;;;;5763161;22;20072;-43
2023/08/13 12:02:25;;;;;;;3.47;1.50;;;25.40;99.90;;;;;;5069868;28;20418;-47
2023/08/13 12:04:50;;;;;;;3.67;1.40;;;25.40;99.90;;;;;;5072363;28;20029;-39
2023/08/13 12:07:16;;;;;;;4.85;1.40;;;25.50;99.90;;;;;;5062089;28;20098;-43
2023/08/13 12:09:42;;;;;;;2.30;1.50;;;25.50;99.90;;;;;;5064594;28;20166;-43
2023/08/13 12:12:08;;;;;;;1.75;1.45;;;25.50;99.00;;;;;;5053512;28;20104;-42
2023/08/13 12:14:40;;;;;;;2.58;1.48;;;25.50;99.40;;;;;;5031486;22;20046;-50
2023/08/13 12:17:06;;;;;;;3.80;1.80;;;25.50;99.90;;;;;;5031805;28;20330;-50
2023/08/13 12:19:31;;;;;;;2.85;1.92;;;25.40;99.90;;;;;;5032112;28;20087;-53
2023/08/13 12:21:57;;;;;;;2.47;1.77;;;25.40;99.90;;;;;;5032582;28;20028;-52
2023/08/13 12:24:22;;;;;;;7.97;1.83;;;25.40;99.90;;;;;;5015506;28;20025;-54
2023/08/13 12:26:48;;;;;;;1.60;1.50;;;25.40;99.90;;;;;;5033331;28;20025;-52
2023/08/13 12:29:13;;;;;;;6.53;1.67;;;25.50;99.90;;;;;;5032965;28;20484;-51
2023/08/13 12:31:39;;;;;;;6.45;2.40;;;25.40;99.90;;;;;;5033443;28;20036;-51
2023/08/13 12:34:04;;;;;;;1.75;1.48;;;25.60;99.90;;;;;;5015260;28;20407;-51
2023/08/13 12:36:30;;;;;;;5.63;1.80;;;25.60;99.90;;;;;;5015367;28;20400;-55
2023/08/13 12:38:55;;;;;;;1.95;1.60;;;25.60;99.90;;;;;;5032902;28;20053;-56
2023/08/13 12:41:21;;;;;;;3.13;1.45;;;25.70;99.70;;;;;;5028271;28;20488;-51
2023/08/13 12:43:48;;;;;;;4.13;1.60;;;25.70;99.90;;;;;;5033141;28;20029;-54